sensor_id;sensor_type;location;lat;lon;timestamp;P1;durP1;ratioP1;P2;durP2;ratioP2
17566;SDS011;8901;52.088;5.084;2023-07-13T00:00:53;11.88;;;8.48;;
17566;SDS011;8901;52.088;5.084;2023-07-13T00:03:22;12.15;;;7.40;;
17566;SDS011;8901;52.088;5.084;2023-07-13T00:05:57;11.02;;;6.50;;
17566;SDS011;8901;52.088;5.084;2023-07-13T00:08:24;13.20;;;7.93;;
17566;SDS011;8901;52.088;5.084;2023-07-13T00:10:52;9.13;;;7.50;;
17566;SDS011;8901;52.088;5.084;2023-07-13T00:13:20;10.32;;;7.47;;
17566;SDS011;8901;52.088;5.084;2023-07-13T00:15:47;9.63;;;7.00;;
17566;SDS011;8901;52.088;5.084;2023-07-13T00:18:14;9.55;;;7.95;;
17566;SDS011;8901;52.088;5.084;2023-07-13T00:20:43;12.82;;;8.02;;
17566;SDS011;8901;52.088;5.084;2023-07-13T00:23:10;13.60;;;8.93;;
17566;SDS011;8901;52.088;5.084;2023-07-13T00:25:38;10.93;;;8.35;;
17566;SDS011;8901;52.088;5.084;2023-07-13T00:28:05;10.25;;;6.68;;
17566;SDS011;8901;52.088;5.084;2023-07-13T00:30:33;9.25;;;7.75;;
17566;SDS011;8901;52.088;5.084;2023-07-13T00:33:00;10.95;;;7.18;;
17566;SDS011;8901;52.088;5.084;2023-07-13T00:35:30;9.00;;;6.43;;
17566;SDS011;8901;52.088;5.084;2023-07-13T00:37:59;11.82;;;7.78;;
17566;SDS011;8901;52.088;5.084;2023-07-13T00:40:27;10.60;;;7.82;;
17566;SDS011;8901;52.088;5.084;2023-07-13T00:42:56;10.35;;;7.40;;
17566;SDS011;8901;52.088;5.084;2023-07-13T00:48:10;11.77;;;7.60;;
17566;SDS011;8901;52.088;5.084;2023-07-13T00:50:38;8.88;;;7.45;;
17566;SDS011;8901;52.088;5.084;2023-07-13T00:53:08;9.20;;;6.78;;
17566;SDS011;8901;52.088;5.084;2023-07-13T00:55:36;14.73;;;7.80;;
17566;SDS011;8901;52.088;5.084;2023-07-13T00:58:04;10.13;;;8.15;;
17566;SDS011;8901;52.088;5.084;2023-07-13T01:00:32;8.43;;;7.45;;
17566;SDS011;8901;52.088;5.084;2023-07-13T01:03:00;9.88;;;7.82;;
17566;SDS011;8901;52.088;5.084;2023-07-13T01:05:29;9.73;;;7.53;;
17566;SDS011;8901;52.088;5.084;2023-07-13T01:07:58;10.23;;;8.07;;
17566;SDS011;8901;52.088;5.084;2023-07-13T01:10:27;9.40;;;7.10;;
17566;SDS011;8901;52.088;5.084;2023-07-13T01:12:54;8.93;;;7.45;;
17566;SDS011;8901;52.088;5.084;2023-07-13T01:15:35;9.50;;;8.10;;
17566;SDS011;8901;52.088;5.084;2023-07-13T01:18:03;8.57;;;7.63;;
17566;SDS011;8901;52.088;5.084;2023-07-13T01:20:31;7.80;;;7.00;;
17566;SDS011;8901;52.088;5.084;2023-07-13T01:23:04;12.10;;;7.47;;
17566;SDS011;8901;52.088;5.084;2023-07-13T01:25:33;8.60;;;7.65;;
17566;SDS011;8901;52.088;5.084;2023-07-13T01:28:02;8.38;;;7.35;;
17566;SDS011;8901;52.088;5.084;2023-07-13T01:30:29;9.32;;;6.90;;
17566;SDS011;8901;52.088;5.084;2023-07-13T01:32:57;8.88;;;6.70;;
17566;SDS011;8901;52.088;5.084;2023-07-13T01:35:25;6.85;;;5.90;;
17566;SDS011;8901;52.088;5.084;2023-07-13T01:37:52;10.20;;;7.03;;
17566;SDS011;8901;52.088;5.084;2023-07-13T01:40:21;7.82;;;7.10;;
17566;SDS011;8901;52.088;5.084;2023-07-13T01:42:48;9.75;;;8.75;;
17566;SDS011;8901;52.088;5.084;2023-07-13T01:45:16;9.43;;;6.78;;
17566;SDS011;8901;52.088;5.084;2023-07-13T01:47:43;9.15;;;6.63;;
17566;SDS011;8901;52.088;5.084;2023-07-13T01:50:11;9.98;;;6.22;;
17566;SDS011;8901;52.088;5.084;2023-07-13T01:52:38;7.72;;;6.82;;
17566;SDS011;8901;52.088;5.084;2023-07-13T01:55:06;8.60;;;6.30;;
17566;SDS011;8901;52.088;5.084;2023-07-13T01:57:36;10.07;;;7.20;;
17566;SDS011;8901;52.088;5.084;2023-07-13T02:00:04;7.93;;;6.30;;
17566;SDS011;8901;52.088;5.084;2023-07-13T02:02:32;7.78;;;6.88;;
17566;SDS011;8901;52.088;5.084;2023-07-13T02:04:59;12.02;;;6.97;;
17566;SDS011;8901;52.088;5.084;2023-07-13T02:07:27;10.65;;;7.13;;
17566;SDS011;8901;52.088;5.084;2023-07-13T02:09:54;10.32;;;7.38;;
17566;SDS011;8901;52.088;5.084;2023-07-13T02:12:22;13.27;;;8.35;;
17566;SDS011;8901;52.088;5.084;2023-07-13T02:14:51;7.60;;;6.63;;
17566;SDS011;8901;52.088;5.084;2023-07-13T02:17:18;9.90;;;7.30;;
17566;SDS011;8901;52.088;5.084;2023-07-13T02:19:45;10.70;;;6.60;;
17566;SDS011;8901;52.088;5.084;2023-07-13T02:22:13;9.05;;;6.55;;
17566;SDS011;8901;52.088;5.084;2023-07-13T02:24:41;8.65;;;6.60;;
17566;SDS011;8901;52.088;5.084;2023-07-13T02:27:08;8.07;;;6.80;;
17566;SDS011;8901;52.088;5.084;2023-07-13T02:29:35;11.48;;;6.97;;
17566;SDS011;8901;52.088;5.084;2023-07-13T02:32:05;10.98;;;7.38;;
17566;SDS011;8901;52.088;5.084;2023-07-13T02:34:32;8.55;;;6.65;;
17566;SDS011;8901;52.088;5.084;2023-07-13T02:37:00;12.20;;;7.35;;
17566;SDS011;8901;52.088;5.084;2023-07-13T02:39:27;10.10;;;6.72;;
17566;SDS011;8901;52.088;5.084;2023-07-13T02:41:58;13.93;;;7.22;;
17566;SDS011;8901;52.088;5.084;2023-07-13T02:44:25;11.70;;;7.05;;
17566;SDS011;8901;52.088;5.084;2023-07-13T02:46:53;7.82;;;6.57;;
17566;SDS011;8901;52.088;5.084;2023-07-13T02:49:22;11.57;;;6.97;;
17566;SDS011;8901;52.088;5.084;2023-07-13T02:51:50;11.07;;;7.07;;
17566;SDS011;8901;52.088;5.084;2023-07-13T02:54:17;10.63;;;6.60;;
17566;SDS011;8901;52.088;5.084;2023-07-13T02:56:44;8.65;;;5.85;;
17566;SDS011;8901;52.088;5.084;2023-07-13T02:59:12;12.73;;;7.85;;
17566;SDS011;8901;52.088;5.084;2023-07-13T03:01:40;12.38;;;6.80;;
17566;SDS011;8901;52.088;5.084;2023-07-13T03:04:07;13.40;;;6.43;;
17566;SDS011;8901;52.088;5.084;2023-07-13T03:06:37;9.70;;;6.15;;
17566;SDS011;8901;52.088;5.084;2023-07-13T03:09:04;12.27;;;7.72;;
17566;SDS011;8901;52.088;5.084;2023-07-13T03:11:32;10.38;;;6.53;;
17566;SDS011;8901;52.088;5.084;2023-07-13T03:13:59;11.02;;;6.72;;
17566;SDS011;8901;52.088;5.084;2023-07-13T03:16:26;14.27;;;6.78;;
17566;SDS011;8901;52.088;5.084;2023-07-13T03:18:54;11.32;;;7.32;;
17566;SDS011;8901;52.088;5.084;2023-07-13T03:21:22;11.18;;;7.00;;
17566;SDS011;8901;52.088;5.084;2023-07-13T03:23:51;8.13;;;6.80;;
17566;SDS011;8901;52.088;5.084;2023-07-13T03:26:19;10.43;;;6.18;;
17566;SDS011;8901;52.088;5.084;2023-07-13T03:28:47;10.57;;;6.13;;
17566;SDS011;8901;52.088;5.084;2023-07-13T03:31:15;7.55;;;6.50;;
17566;SDS011;8901;52.088;5.084;2023-07-13T03:33:43;8.38;;;6.65;;
17566;SDS011;8901;52.088;5.084;2023-07-13T03:36:12;13.70;;;7.28;;
17566;SDS011;8901;52.088;5.084;2023-07-13T03:41:41;11.85;;;6.93;;
17566;SDS011;8901;52.088;5.084;2023-07-13T03:44:08;11.75;;;7.15;;
17566;SDS011;8901;52.088;5.084;2023-07-13T03:46:36;9.95;;;7.18;;
17566;SDS011;8901;52.088;5.084;2023-07-13T03:49:03;11.05;;;6.80;;
17566;SDS011;8901;52.088;5.084;2023-07-13T03:51:32;15.98;;;6.80;;
17566;SDS011;8901;52.088;5.084;2023-07-13T03:53:59;12.15;;;6.32;;
17566;SDS011;8901;52.088;5.084;2023-07-13T03:56:27;11.25;;;6.40;;
17566;SDS011;8901;52.088;5.084;2023-07-13T03:58:57;12.60;;;6.25;;
17566;SDS011;8901;52.088;5.084;2023-07-13T04:01:25;13.95;;;6.75;;
17566;SDS011;8901;52.088;5.084;2023-07-13T04:03:52;10.55;;;6.28;;
17566;SDS011;8901;52.088;5.084;2023-07-13T04:06:20;11.48;;;5.68;;
17566;SDS011;8901;52.088;5.084;2023-07-13T04:08:50;11.00;;;5.18;;
17566;SDS011;8901;52.088;5.084;2023-07-13T04:11:18;13.52;;;5.75;;
17566;SDS011;8901;52.088;5.084;2023-07-13T04:13:45;15.65;;;6.13;;
17566;SDS011;8901;52.088;5.084;2023-07-13T04:16:15;9.18;;;6.40;;
17566;SDS011;8901;52.088;5.084;2023-07-13T04:18:42;13.52;;;7.10;;
17566;SDS011;8901;52.088;5.084;2023-07-13T04:21:10;15.18;;;6.88;;
17566;SDS011;8901;52.088;5.084;2023-07-13T04:23:38;13.23;;;5.70;;
17566;SDS011;8901;52.088;5.084;2023-07-13T04:26:05;8.27;;;5.13;;
17566;SDS011;8901;52.088;5.084;2023-07-13T04:28:33;9.35;;;5.60;;
17566;SDS011;8901;52.088;5.084;2023-07-13T04:31:01;12.98;;;6.53;;
17566;SDS011;8901;52.088;5.084;2023-07-13T04:33:30;12.35;;;5.32;;
17566;SDS011;8901;52.088;5.084;2023-07-13T04:35:57;13.18;;;6.55;;
17566;SDS011;8901;52.088;5.084;2023-07-13T04:38:27;14.25;;;5.90;;
17566;SDS011;8901;52.088;5.084;2023-07-13T04:40:56;15.00;;;6.28;;
17566;SDS011;8901;52.088;5.084;2023-07-13T04:43:24;16.42;;;6.65;;
17566;SDS011;8901;52.088;5.084;2023-07-13T04:45:51;16.98;;;5.80;;
17566;SDS011;8901;52.088;5.084;2023-07-13T04:48:19;11.80;;;5.38;;
17566;SDS011;8901;52.088;5.084;2023-07-13T04:50:53;11.23;;;5.13;;
17566;SDS011;8901;52.088;5.084;2023-07-13T04:53:22;16.52;;;5.68;;
17566;SDS011;8901;52.088;5.084;2023-07-13T04:55:50;13.20;;;5.95;;
17566;SDS011;8901;52.088;5.084;2023-07-13T04:58:17;12.10;;;5.53;;
17566;SDS011;8901;52.088;5.084;2023-07-13T05:00:46;18.67;;;6.57;;
17566;SDS011;8901;52.088;5.084;2023-07-13T05:03:14;14.80;;;6.15;;
17566;SDS011;8901;52.088;5.084;2023-07-13T05:05:41;12.20;;;6.07;;
17566;SDS011;8901;52.088;5.084;2023-07-13T05:08:10;16.90;;;6.15;;
17566;SDS011;8901;52.088;5.084;2023-07-13T05:10:37;13.52;;;6.25;;
17566;SDS011;8901;52.088;5.084;2023-07-13T05:13:05;13.80;;;5.90;;
17566;SDS011;8901;52.088;5.084;2023-07-13T05:15:32;14.50;;;5.90;;
17566;SDS011;8901;52.088;5.084;2023-07-13T05:18:00;18.15;;;6.47;;
17566;SDS011;8901;52.088;5.084;2023-07-13T05:20:28;13.23;;;6.00;;
17566;SDS011;8901;52.088;5.084;2023-07-13T05:22:55;15.82;;;5.20;;
17566;SDS011;8901;52.088;5.084;2023-07-13T05:25:24;12.25;;;5.05;;
17566;SDS011;8901;52.088;5.084;2023-07-13T05:27:52;18.73;;;6.75;;
17566;SDS011;8901;52.088;5.084;2023-07-13T05:30:19;164.95;;;19.65;;
17566;SDS011;8901;52.088;5.084;2023-07-13T05:32:46;33.83;;;7.65;;
17566;SDS011;8901;52.088;5.084;2023-07-13T05:35:14;15.77;;;5.85;;
17566;SDS011;8901;52.088;5.084;2023-07-13T05:37:42;14.93;;;6.47;;
17566;SDS011;8901;52.088;5.084;2023-07-13T05:40:09;23.45;;;6.10;;
17566;SDS011;8901;52.088;5.084;2023-07-13T05:42:38;17.92;;;6.70;;
17566;SDS011;8901;52.088;5.084;2023-07-13T05:45:06;20.60;;;6.93;;
17566;SDS011;8901;52.088;5.084;2023-07-13T05:47:34;18.13;;;6.15;;
17566;SDS011;8901;52.088;5.084;2023-07-13T05:50:01;34.97;;;8.25;;
17566;SDS011;8901;52.088;5.084;2023-07-13T05:52:29;17.30;;;5.40;;
17566;SDS011;8901;52.088;5.084;2023-07-13T05:54:56;23.17;;;6.57;;
17566;SDS011;8901;52.088;5.084;2023-07-13T05:57:24;23.98;;;7.50;;
17566;SDS011;8901;52.088;5.084;2023-07-13T05:59:54;24.63;;;6.38;;
17566;SDS011;8901;52.088;5.084;2023-07-13T06:02:21;15.38;;;5.78;;
17566;SDS011;8901;52.088;5.084;2023-07-13T06:04:48;16.40;;;5.57;;
17566;SDS011;8901;52.088;5.084;2023-07-13T06:07:16;12.98;;;4.72;;
17566;SDS011;8901;52.088;5.084;2023-07-13T06:09:43;14.13;;;5.18;;
17566;SDS011;8901;52.088;5.084;2023-07-13T06:12:11;14.15;;;5.57;;
17566;SDS011;8901;52.088;5.084;2023-07-13T06:14:38;12.32;;;4.38;;
17566;SDS011;8901;52.088;5.084;2023-07-13T06:17:07;15.90;;;5.45;;
17566;SDS011;8901;52.088;5.084;2023-07-13T06:19:34;11.20;;;5.60;;
17566;SDS011;8901;52.088;5.084;2023-07-13T06:22:02;15.32;;;4.50;;
17566;SDS011;8901;52.088;5.084;2023-07-13T06:24:29;10.68;;;4.78;;
17566;SDS011;8901;52.088;5.084;2023-07-13T06:26:57;16.30;;;6.60;;
17566;SDS011;8901;52.088;5.084;2023-07-13T06:29:24;16.67;;;5.70;;
17566;SDS011;8901;52.088;5.084;2023-07-13T06:31:52;14.35;;;5.00;;
17566;SDS011;8901;52.088;5.084;2023-07-13T06:34:20;19.65;;;5.53;;
17566;SDS011;8901;52.088;5.084;2023-07-13T06:36:48;14.50;;;5.38;;
17566;SDS011;8901;52.088;5.084;2023-07-13T06:39:15;19.33;;;6.32;;
17566;SDS011;8901;52.088;5.084;2023-07-13T06:41:43;18.35;;;6.32;;
17566;SDS011;8901;52.088;5.084;2023-07-13T06:44:10;12.38;;;5.90;;
17566;SDS011;8901;52.088;5.084;2023-07-13T06:46:38;13.68;;;6.57;;
17566;SDS011;8901;52.088;5.084;2023-07-13T06:49:05;16.55;;;7.00;;
17566;SDS011;8901;52.088;5.084;2023-07-13T06:51:35;17.40;;;6.05;;
17566;SDS011;8901;52.088;5.084;2023-07-13T06:54:02;15.07;;;6.30;;
17566;SDS011;8901;52.088;5.084;2023-07-13T06:56:30;21.70;;;6.82;;
17566;SDS011;8901;52.088;5.084;2023-07-13T06:58:57;12.68;;;5.30;;
17566;SDS011;8901;52.088;5.084;2023-07-13T07:01:25;13.35;;;5.32;;
17566;SDS011;8901;52.088;5.084;2023-07-13T07:03:53;6.43;;;3.65;;
17566;SDS011;8901;52.088;5.084;2023-07-13T07:06:20;10.75;;;3.95;;
17566;SDS011;8901;52.088;5.084;2023-07-13T07:08:50;8.90;;;3.83;;
17566;SDS011;8901;52.088;5.084;2023-07-13T07:11:19;10.25;;;4.85;;
17566;SDS011;8901;52.088;5.084;2023-07-13T07:13:47;9.75;;;4.70;;
17566;SDS011;8901;52.088;5.084;2023-07-13T07:16:15;12.88;;;4.50;;
17566;SDS011;8901;52.088;5.084;2023-07-13T07:18:43;12.07;;;4.90;;
17566;SDS011;8901;52.088;5.084;2023-07-13T07:21:11;13.18;;;4.93;;
17566;SDS011;8901;52.088;5.084;2023-07-13T07:23:38;11.00;;;4.40;;
17566;SDS011;8901;52.088;5.084;2023-07-13T07:26:08;12.15;;;5.07;;
17566;SDS011;8901;52.088;5.084;2023-07-13T07:28:36;12.18;;;4.25;;
17566;SDS011;8901;52.088;5.084;2023-07-13T07:31:05;13.20;;;5.15;;
17566;SDS011;8901;52.088;5.084;2023-07-13T07:33:33;12.63;;;5.13;;
17566;SDS011;8901;52.088;5.084;2023-07-13T07:36:01;11.93;;;4.85;;
17566;SDS011;8901;52.088;5.084;2023-07-13T07:38:28;8.90;;;4.38;;
17566;SDS011;8901;52.088;5.084;2023-07-13T07:40:56;8.95;;;4.15;;
17566;SDS011;8901;52.088;5.084;2023-07-13T07:43:25;9.55;;;4.80;;
17566;SDS011;8901;52.088;5.084;2023-07-13T07:45:52;15.10;;;5.53;;
17566;SDS011;8901;52.088;5.084;2023-07-13T07:48:19;12.13;;;5.10;;
17566;SDS011;8901;52.088;5.084;2023-07-13T07:50:47;13.82;;;5.68;;
17566;SDS011;8901;52.088;5.084;2023-07-13T07:53:15;14.30;;;5.70;;
17566;SDS011;8901;52.088;5.084;2023-07-13T07:55:43;15.10;;;5.82;;
17566;SDS011;8901;52.088;5.084;2023-07-13T07:58:10;15.52;;;5.47;;
17566;SDS011;8901;52.088;5.084;2023-07-13T08:00:39;11.55;;;5.80;;
17566;SDS011;8901;52.088;5.084;2023-07-13T08:03:07;12.60;;;4.78;;
17566;SDS011;8901;52.088;5.084;2023-07-13T08:05:34;11.63;;;4.28;;
17566;SDS011;8901;52.088;5.084;2023-07-13T08:08:02;9.45;;;4.38;;
17566;SDS011;8901;52.088;5.084;2023-07-13T08:10:29;13.13;;;3.90;;
17566;SDS011;8901;52.088;5.084;2023-07-13T08:12:57;9.13;;;3.45;;
17566;SDS011;8901;52.088;5.084;2023-07-13T08:15:25;6.90;;;3.35;;
17566;SDS011;8901;52.088;5.084;2023-07-13T08:17:53;5.93;;;2.60;;
17566;SDS011;8901;52.088;5.084;2023-07-13T08:20:21;3.80;;;2.90;;
17566;SDS011;8901;52.088;5.084;2023-07-13T08:22:48;4.20;;;3.50;;
17566;SDS011;8901;52.088;5.084;2023-07-13T08:25:16;5.97;;;3.60;;
17566;SDS011;8901;52.088;5.084;2023-07-13T08:27:43;9.45;;;4.80;;
17566;SDS011;8901;52.088;5.084;2023-07-13T08:30:10;6.22;;;3.20;;
17566;SDS011;8901;52.088;5.084;2023-07-13T08:32:38;4.85;;;3.58;;
17566;SDS011;8901;52.088;5.084;2023-07-13T08:35:07;6.82;;;4.28;;
17566;SDS011;8901;52.088;5.084;2023-07-13T08:37:35;5.13;;;3.83;;
17566;SDS011;8901;52.088;5.084;2023-07-13T08:40:03;20.40;;;4.97;;
17566;SDS011;8901;52.088;5.084;2023-07-13T08:42:33;15.60;;;5.00;;
17566;SDS011;8901;52.088;5.084;2023-07-13T08:45:08;13.38;;;5.10;;
17566;SDS011;8901;52.088;5.084;2023-07-13T08:47:39;7.40;;;3.90;;
17566;SDS011;8901;52.088;5.084;2023-07-13T08:50:13;7.50;;;3.90;;
17566;SDS011;8901;52.088;5.084;2023-07-13T08:52:41;5.05;;;3.10;;
17566;SDS011;8901;52.088;5.084;2023-07-13T08:55:13;5.70;;;3.60;;
17566;SDS011;8901;52.088;5.084;2023-07-13T08:57:42;7.82;;;3.83;;
17566;SDS011;8901;52.088;5.084;2023-07-13T09:00:12;5.50;;;3.45;;
17566;SDS011;8901;52.088;5.084;2023-07-13T09:02:42;6.07;;;3.40;;
17566;SDS011;8901;52.088;5.084;2023-07-13T09:05:14;6.45;;;4.30;;
17566;SDS011;8901;52.088;5.084;2023-07-13T09:07:52;6.43;;;4.10;;
17566;SDS011;8901;52.088;5.084;2023-07-13T09:10:23;9.55;;;3.85;;
17566;SDS011;8901;52.088;5.084;2023-07-13T09:12:57;8.00;;;3.83;;
17566;SDS011;8901;52.088;5.084;2023-07-13T09:15:28;9.68;;;3.67;;
17566;SDS011;8901;52.088;5.084;2023-07-13T09:17:58;11.15;;;4.13;;
17566;SDS011;8901;52.088;5.084;2023-07-13T09:20:29;6.40;;;3.13;;
17566;SDS011;8901;52.088;5.084;2023-07-13T09:22:57;6.35;;;3.38;;
17566;SDS011;8901;52.088;5.084;2023-07-13T09:25:29;7.30;;;3.20;;
17566;SDS011;8901;52.088;5.084;2023-07-13T09:27:57;5.18;;;2.97;;
17566;SDS011;8901;52.088;5.084;2023-07-13T09:30:29;10.55;;;3.90;;
17566;SDS011;8901;52.088;5.084;2023-07-13T09:32:57;7.38;;;3.50;;
17566;SDS011;8901;52.088;5.084;2023-07-13T09:35:26;5.93;;;3.45;;
17566;SDS011;8901;52.088;5.084;2023-07-13T09:37:58;10.98;;;4.53;;
17566;SDS011;8901;52.088;5.084;2023-07-13T09:40:28;12.23;;;4.55;;
17566;SDS011;8901;52.088;5.084;2023-07-13T09:42:58;5.75;;;3.83;;
17566;SDS011;8901;52.088;5.084;2023-07-13T09:45:29;6.53;;;4.50;;
17566;SDS011;8901;52.088;5.084;2023-07-13T09:48:00;8.38;;;3.78;;
17566;SDS011;8901;52.088;5.084;2023-07-13T09:50:30;10.10;;;3.90;;
17566;SDS011;8901;52.088;5.084;2023-07-13T09:53:00;5.50;;;3.75;;
17566;SDS011;8901;52.088;5.084;2023-07-13T09:55:29;7.90;;;4.85;;
17566;SDS011;8901;52.088;5.084;2023-07-13T09:57:58;7.65;;;4.50;;
17566;SDS011;8901;52.088;5.084;2023-07-13T10:00:30;8.00;;;4.32;;
17566;SDS011;8901;52.088;5.084;2023-07-13T10:03:02;12.45;;;4.65;;
17566;SDS011;8901;52.088;5.084;2023-07-13T10:05:37;10.88;;;4.32;;
17566;SDS011;8901;52.088;5.084;2023-07-13T10:08:10;12.25;;;4.35;;
17566;SDS011;8901;52.088;5.084;2023-07-13T10:10:43;8.75;;;4.38;;
17566;SDS011;8901;52.088;5.084;2023-07-13T10:13:21;8.93;;;3.65;;
17566;SDS011;8901;52.088;5.084;2023-07-13T10:15:51;5.82;;;3.42;;
17566;SDS011;8901;52.088;5.084;2023-07-13T10:18:19;22.20;;;5.30;;
17566;SDS011;8901;52.088;5.084;2023-07-13T10:20:48;9.55;;;3.20;;
17566;SDS011;8901;52.088;5.084;2023-07-13T10:23:21;4.35;;;2.83;;
17566;SDS011;8901;52.088;5.084;2023-07-13T10:25:52;7.05;;;3.13;;
17566;SDS011;8901;52.088;5.084;2023-07-13T10:28:24;5.97;;;3.08;;
17566;SDS011;8901;52.088;5.084;2023-07-13T10:30:53;3.95;;;3.58;;
17566;SDS011;8901;52.088;5.084;2023-07-13T10:33:22;14.45;;;4.90;;
17566;SDS011;8901;52.088;5.084;2023-07-13T10:35:50;15.57;;;5.10;;
17566;SDS011;8901;52.088;5.084;2023-07-13T10:38:22;10.10;;;4.30;;
17566;SDS011;8901;52.088;5.084;2023-07-13T10:40:53;4.93;;;4.00;;
17566;SDS011;8901;52.088;5.084;2023-07-13T10:43:25;7.18;;;3.70;;
17566;SDS011;8901;52.088;5.084;2023-07-13T10:45:53;9.88;;;3.90;;
17566;SDS011;8901;52.088;5.084;2023-07-13T10:48:22;5.05;;;4.22;;
17566;SDS011;8901;52.088;5.084;2023-07-13T10:50:51;5.60;;;4.28;;
17566;SDS011;8901;52.088;5.084;2023-07-13T10:53:22;7.03;;;4.18;;
17566;SDS011;8901;52.088;5.084;2023-07-13T10:55:56;6.97;;;4.60;;
17566;SDS011;8901;52.088;5.084;2023-07-13T10:58:28;7.57;;;4.90;;
17566;SDS011;8901;52.088;5.084;2023-07-13T11:00:57;9.10;;;4.72;;
17566;SDS011;8901;52.088;5.084;2023-07-13T11:03:26;11.85;;;5.28;;
17566;SDS011;8901;52.088;5.084;2023-07-13T11:06:05;7.55;;;5.40;;
17566;SDS011;8901;52.088;5.084;2023-07-13T11:08:36;9.57;;;4.72;;
17566;SDS011;8901;52.088;5.084;2023-07-13T11:11:31;9.23;;;4.50;;
17566;SDS011;8901;52.088;5.084;2023-07-13T11:14:00;7.78;;;4.75;;
17566;SDS011;8901;52.088;5.084;2023-07-13T11:16:36;6.40;;;4.40;;
17566;SDS011;8901;52.088;5.084;2023-07-13T11:22:10;7.75;;;4.75;;
17566;SDS011;8901;52.088;5.084;2023-07-13T11:24:51;11.05;;;5.10;;
17566;SDS011;8901;52.088;5.084;2023-07-13T11:27:21;13.32;;;6.63;;
17566;SDS011;8901;52.088;5.084;2023-07-13T11:29:49;9.38;;;4.90;;
17566;SDS011;8901;52.088;5.084;2023-07-13T11:32:21;12.50;;;6.88;;
17566;SDS011;8901;52.088;5.084;2023-07-13T11:34:51;10.10;;;6.55;;
17566;SDS011;8901;52.088;5.084;2023-07-13T11:37:20;8.65;;;5.70;;
17566;SDS011;8901;52.088;5.084;2023-07-13T11:39:50;9.88;;;6.70;;
17566;SDS011;8901;52.088;5.084;2023-07-13T11:42:18;7.75;;;7.00;;
17566;SDS011;8901;52.088;5.084;2023-07-13T11:44:47;7.75;;;6.97;;
17566;SDS011;8901;52.088;5.084;2023-07-13T11:47:16;24.58;;;8.88;;
17566;SDS011;8901;52.088;5.084;2023-07-13T11:49:47;8.65;;;6.13;;
17566;SDS011;8901;52.088;5.084;2023-07-13T11:52:17;7.82;;;6.80;;
17566;SDS011;8901;52.088;5.084;2023-07-13T11:54:46;41.45;;;14.68;;
17566;SDS011;8901;52.088;5.084;2023-07-13T11:57:20;9.77;;;8.43;;
17566;SDS011;8901;52.088;5.084;2023-07-13T11:59:50;35.92;;;14.65;;
17566;SDS011;8901;52.088;5.084;2023-07-13T12:02:21;9.70;;;8.18;;
17566;SDS011;8901;52.088;5.084;2023-07-13T12:04:52;12.98;;;10.25;;
17566;SDS011;8901;52.088;5.084;2023-07-13T12:07:20;14.85;;;9.07;;
17566;SDS011;8901;52.088;5.084;2023-07-13T12:09:47;11.52;;;10.63;;
17566;SDS011;8901;52.088;5.084;2023-07-13T12:12:17;30.98;;;13.57;;
17566;SDS011;8901;52.088;5.084;2023-07-13T12:14:46;12.05;;;9.95;;
17566;SDS011;8901;52.088;5.084;2023-07-13T12:17:20;11.30;;;10.25;;
17566;SDS011;8901;52.088;5.084;2023-07-13T12:19:48;31.92;;;12.25;;
17566;SDS011;8901;52.088;5.084;2023-07-13T12:22:18;12.02;;;10.82;;
17566;SDS011;8901;52.088;5.084;2023-07-13T12:24:48;33.53;;;13.63;;
17566;SDS011;8901;52.088;5.084;2023-07-13T12:27:18;23.00;;;15.55;;
17566;SDS011;8901;52.088;5.084;2023-07-13T12:29:52;14.90;;;13.77;;
17566;SDS011;8901;52.088;5.084;2023-07-13T12:32:20;15.02;;;13.43;;
17566;SDS011;8901;52.088;5.084;2023-07-13T12:34:51;13.38;;;12.07;;
17566;SDS011;8901;52.088;5.084;2023-07-13T12:37:19;32.72;;;13.38;;
17566;SDS011;8901;52.088;5.084;2023-07-13T12:39:47;33.75;;;17.45;;
17566;SDS011;8901;52.088;5.084;2023-07-13T12:42:19;14.65;;;13.27;;
17566;SDS011;8901;52.088;5.084;2023-07-13T12:44:49;15.52;;;14.40;;
17566;SDS011;8901;52.088;5.084;2023-07-13T12:47:19;14.60;;;13.60;;
17566;SDS011;8901;52.088;5.084;2023-07-13T12:49:48;13.43;;;12.50;;
17566;SDS011;8901;52.088;5.084;2023-07-13T12:52:17;15.27;;;14.10;;
17566;SDS011;8901;52.088;5.084;2023-07-13T12:54:52;15.60;;;14.43;;
17566;SDS011;8901;52.088;5.084;2023-07-13T12:57:22;15.82;;;14.73;;
17566;SDS011;8901;52.088;5.084;2023-07-13T12:59:51;16.10;;;14.85;;
17566;SDS011;8901;52.088;5.084;2023-07-13T13:02:22;15.57;;;14.27;;
17566;SDS011;8901;52.088;5.084;2023-07-13T13:04:54;15.85;;;14.32;;
17566;SDS011;8901;52.088;5.084;2023-07-13T13:07:23;15.23;;;14.15;;
17566;SDS011;8901;52.088;5.084;2023-07-13T13:09:50;17.58;;;15.88;;
17566;SDS011;8901;52.088;5.084;2023-07-13T13:12:18;18.98;;;16.17;;
17566;SDS011;8901;52.088;5.084;2023-07-13T13:14:45;16.98;;;15.68;;
17566;SDS011;8901;52.088;5.084;2023-07-13T13:17:16;18.42;;;17.00;;
17566;SDS011;8901;52.088;5.084;2023-07-13T13:22:38;17.40;;;16.17;;
17566;SDS011;8901;52.088;5.084;2023-07-13T13:25:13;15.50;;;14.40;;
17566;SDS011;8901;52.088;5.084;2023-07-13T13:27:42;16.13;;;14.93;;
17566;SDS011;8901;52.088;5.084;2023-07-13T13:33:21;18.48;;;16.55;;
17566;SDS011;8901;52.088;5.084;2023-07-13T13:48:14;15.88;;;14.88;;
17566;SDS011;8901;52.088;5.084;2023-07-13T13:50:42;17.10;;;15.93;;
17566;SDS011;8901;52.088;5.084;2023-07-13T13:53:10;18.10;;;16.60;;
17566;SDS011;8901;52.088;5.084;2023-07-13T13:55:38;17.63;;;16.15;;
17566;SDS011;8901;52.088;5.084;2023-07-13T13:58:07;18.42;;;17.02;;
17566;SDS011;8901;52.088;5.084;2023-07-13T14:00:35;19.02;;;17.48;;
17566;SDS011;8901;52.088;5.084;2023-07-13T14:03:03;16.80;;;15.68;;
17566;SDS011;8901;52.088;5.084;2023-07-13T14:05:33;16.67;;;15.50;;
17566;SDS011;8901;52.088;5.084;2023-07-13T14:08:00;17.83;;;16.45;;
17566;SDS011;8901;52.088;5.084;2023-07-13T14:10:28;19.33;;;17.60;;
17566;SDS011;8901;52.088;5.084;2023-07-13T14:12:55;15.80;;;14.80;;
17566;SDS011;8901;52.088;5.084;2023-07-13T14:15:23;17.65;;;16.45;;
17566;SDS011;8901;52.088;5.084;2023-07-13T14:17:51;17.42;;;16.02;;
17566;SDS011;8901;52.088;5.084;2023-07-13T14:20:19;17.08;;;15.73;;
17566;SDS011;8901;52.088;5.084;2023-07-13T14:22:50;16.70;;;15.68;;
17566;SDS011;8901;52.088;5.084;2023-07-13T14:25:18;17.85;;;16.50;;
17566;SDS011;8901;52.088;5.084;2023-07-13T14:27:46;17.48;;;16.05;;
17566;SDS011;8901;52.088;5.084;2023-07-13T14:30:16;16.88;;;15.77;;
17566;SDS011;8901;52.088;5.084;2023-07-13T14:32:44;16.88;;;15.55;;
17566;SDS011;8901;52.088;5.084;2023-07-13T14:35:11;17.98;;;16.67;;
17566;SDS011;8901;52.088;5.084;2023-07-13T14:37:39;18.65;;;17.33;;
17566;SDS011;8901;52.088;5.084;2023-07-13T14:40:13;18.40;;;17.13;;
17566;SDS011;8901;52.088;5.084;2023-07-13T14:42:41;19.33;;;17.58;;
17566;SDS011;8901;52.088;5.084;2023-07-13T14:45:12;18.35;;;17.15;;
17566;SDS011;8901;52.088;5.084;2023-07-13T14:47:40;18.80;;;17.17;;
17566;SDS011;8901;52.088;5.084;2023-07-13T14:50:12;17.77;;;16.48;;
17566;SDS011;8901;52.088;5.084;2023-07-13T14:52:41;18.85;;;17.27;;
17566;SDS011;8901;52.088;5.084;2023-07-13T14:55:10;18.92;;;17.30;;
17566;SDS011;8901;52.088;5.084;2023-07-13T14:57:39;17.98;;;16.67;;
17566;SDS011;8901;52.088;5.084;2023-07-13T15:00:12;17.80;;;16.60;;
17566;SDS011;8901;52.088;5.084;2023-07-13T15:02:40;17.35;;;16.17;;
17566;SDS011;8901;52.088;5.084;2023-07-13T15:05:12;18.25;;;16.85;;
17566;SDS011;8901;52.088;5.084;2023-07-13T15:07:40;18.30;;;17.02;;
17566;SDS011;8901;52.088;5.084;2023-07-13T15:10:12;18.45;;;17.17;;
17566;SDS011;8901;52.088;5.084;2023-07-13T15:12:42;18.48;;;17.17;;
17566;SDS011;8901;52.088;5.084;2023-07-13T15:15:09;17.98;;;16.88;;
17566;SDS011;8901;52.088;5.084;2023-07-13T15:17:38;19.42;;;18.10;;
17566;SDS011;8901;52.088;5.084;2023-07-13T15:20:11;19.27;;;17.88;;
17566;SDS011;8901;52.088;5.084;2023-07-13T15:22:39;19.25;;;18.05;;
17566;SDS011;8901;52.088;5.084;2023-07-13T15:25:08;18.65;;;17.50;;
17566;SDS011;8901;52.088;5.084;2023-07-13T15:27:38;17.77;;;16.58;;